sensor_id;sensor_type;location;lat;lon;timestamp;temperature;humidity
66140;DHT22;52945;51.908;8.364;2023-11-19T00:01:25;10.70;84.30
66140;DHT22;52945;51.908;8.364;2023-11-19T00:04:25;10.70;84.10
66140;DHT22;52945;51.908;8.364;2023-11-19T00:07:26;10.70;84.00
66140;DHT22;52945;51.908;8.364;2023-11-19T00:10:27;10.80;84.10
66140;DHT22;52945;51.908;8.364;2023-11-19T00:13:28;10.80;84.30
66140;DHT22;52945;51.908;8.364;2023-11-19T00:16:29;10.90;84.20
66140;DHT22;52945;51.908;8.364;2023-11-19T00:19:29;10.80;84.30
66140;DHT22;52945;51.908;8.364;2023-11-19T00:22:30;10.90;84.40
66140;DHT22;52945;51.908;8.364;2023-11-19T00:25:30;11.00;84.30
66140;DHT22;52945;51.908;8.364;2023-11-19T00:28:32;10.90;84.40
66140;DHT22;52945;51.908;8.364;2023-11-19T00:31:33;11.00;84.50
66140;DHT22;52945;51.908;8.364;2023-11-19T00:34:34;11.00;84.20
66140;DHT22;52945;51.908;8.364;2023-11-19T00:37:34;11.00;84.40
66140;DHT22;52945;51.908;8.364;2023-11-19T00:40:35;11.10;84.30
66140;DHT22;52945;51.908;8.364;2023-11-19T00:43:36;11.10;84.20
66140;DHT22;52945;51.908;8.364;2023-11-19T00:46:36;11.20;84.10
66140;DHT22;52945;51.908;8.364;2023-11-19T00:49:37;11.10;84.30
66140;DHT22;52945;51.908;8.364;2023-11-19T00:52:38;11.20;84.40
66140;DHT22;52945;51.908;8.364;2023-11-19T00:55:39;11.20;84.30
66140;DHT22;52945;51.908;8.364;2023-11-19T00:58:39;11.20;84.40
66140;DHT22;52945;51.908;8.364;2023-11-19T01:01:40;11.30;84.40
66140;DHT22;52945;51.908;8.364;2023-11-19T01:04:40;11.30;84.50
66140;DHT22;52945;51.908;8.364;2023-11-19T01:07:41;11.30;84.40
66140;DHT22;52945;51.908;8.364;2023-11-19T01:10:42;11.40;84.20
66140;DHT22;52945;51.908;8.364;2023-11-19T01:13:42;11.40;84.10
66140;DHT22;52945;51.908;8.364;2023-11-19T01:16:44;11.40;84.20
66140;DHT22;52945;51.908;8.364;2023-11-19T01:19:45;11.40;84.40
66140;DHT22;52945;51.908;8.364;2023-11-19T01:22:46;11.40;84.30
66140;DHT22;52945;51.908;8.364;2023-11-19T01:25:48;11.50;84.20
66140;DHT22;52945;51.908;8.364;2023-11-19T01:28:49;11.50;84.20
66140;DHT22;52945;51.908;8.364;2023-11-19T01:31:52;11.50;84.20
66140;DHT22;52945;51.908;8.364;2023-11-19T01:34:53;11.50;84.40
66140;DHT22;52945;51.908;8.364;2023-11-19T01:37:54;11.50;84.30
66140;DHT22;52945;51.908;8.364;2023-11-19T01:40:57;11.60;84.20
66140;DHT22;52945;51.908;8.364;2023-11-19T01:43:58;11.60;84.20
66140;DHT22;52945;51.908;8.364;2023-11-19T01:46:59;11.70;84.40
66140;DHT22;52945;51.908;8.364;2023-11-19T01:50:02;11.70;84.30
66140;DHT22;52945;51.908;8.364;2023-11-19T01:53:07;11.70;84.40
66140;DHT22;52945;51.908;8.364;2023-11-19T01:56:08;11.70;84.30
66140;DHT22;52945;51.908;8.364;2023-11-19T01:59:11;11.80;84.40
66140;DHT22;52945;51.908;8.364;2023-11-19T02:02:13;11.80;84.40
66140;DHT22;52945;51.908;8.364;2023-11-19T02:05:14;11.80;84.60
66140;DHT22;52945;51.908;8.364;2023-11-19T02:08:15;11.90;84.50
66140;DHT22;52945;51.908;8.364;2023-11-19T02:11:16;12.00;84.40
66140;DHT22;52945;51.908;8.364;2023-11-19T02:14:17;11.90;84.40
66140;DHT22;52945;51.908;8.364;2023-11-19T02:17:31;11.90;84.60
66140;DHT22;52945;51.908;8.364;2023-11-19T02:20:32;11.90;84.80
66140;DHT22;52945;51.908;8.364;2023-11-19T02:23:32;12.00;84.70
66140;DHT22;52945;51.908;8.364;2023-11-19T02:27:02;12.00;84.70
66140;DHT22;52945;51.908;8.364;2023-11-19T02:30:03;12.10;84.70
66140;DHT22;52945;51.908;8.364;2023-11-19T02:33:06;12.00;84.60
66140;DHT22;52945;51.908;8.364;2023-11-19T02:36:08;12.10;84.40
66140;DHT22;52945;51.908;8.364;2023-11-19T02:39:09;12.20;84.40
66140;DHT22;52945;51.908;8.364;2023-11-19T02:42:12;12.10;84.40
66140;DHT22;52945;51.908;8.364;2023-11-19T02:45:14;12.20;84.70
66140;DHT22;52945;51.908;8.364;2023-11-19T02:48:15;12.20;84.50
66140;DHT22;52945;51.908;8.364;2023-11-19T02:51:16;12.20;84.60
66140;DHT22;52945;51.908;8.364;2023-11-19T02:54:19;12.20;84.60
66140;DHT22;52945;51.908;8.364;2023-11-19T02:57:21;12.30;84.60
66140;DHT22;52945;51.908;8.364;2023-11-19T03:00:23;12.40;84.60
66140;DHT22;52945;51.908;8.364;2023-11-19T03:03:25;12.40;84.60
66140;DHT22;52945;51.908;8.364;2023-11-19T03:06:31;12.50;84.60
66140;DHT22;52945;51.908;8.364;2023-11-19T03:09:32;12.50;84.60
66140;DHT22;52945;51.908;8.364;2023-11-19T03:12:34;12.50;84.50
66140;DHT22;52945;51.908;8.364;2023-11-19T03:15:34;12.60;84.70
66140;DHT22;52945;51.908;8.364;2023-11-19T03:18:35;12.60;84.90
66140;DHT22;52945;51.908;8.364;2023-11-19T03:21:35;12.70;84.80
66140;DHT22;52945;51.908;8.364;2023-11-19T03:24:37;12.70;84.90
66140;DHT22;52945;51.908;8.364;2023-11-19T03:27:38;12.80;84.80
66140;DHT22;52945;51.908;8.364;2023-11-19T03:30:39;12.80;84.90
66140;DHT22;52945;51.908;8.364;2023-11-19T03:33:39;12.90;84.80
66140;DHT22;52945;51.908;8.364;2023-11-19T03:36:40;12.90;84.80
66140;DHT22;52945;51.908;8.364;2023-11-19T03:39:40;12.90;84.90
66140;DHT22;52945;51.908;8.364;2023-11-19T03:42:41;13.00;84.90
66140;DHT22;52945;51.908;8.364;2023-11-19T03:45:42;13.00;84.80
66140;DHT22;52945;51.908;8.364;2023-11-19T03:48:42;13.00;84.80
66140;DHT22;52945;51.908;8.364;2023-11-19T03:51:43;13.00;84.80
66140;DHT22;52945;51.908;8.364;2023-11-19T03:54:44;13.10;84.60
66140;DHT22;52945;51.908;8.364;2023-11-19T03:57:46;13.10;84.60
66140;DHT22;52945;51.908;8.364;2023-11-19T04:00:48;13.10;84.80
66140;DHT22;52945;51.908;8.364;2023-11-19T04:03:49;13.10;84.90
66140;DHT22;52945;51.908;8.364;2023-11-19T04:06:50;13.10;84.90
66140;DHT22;52945;51.908;8.364;2023-11-19T04:09:50;13.20;85.00
66140;DHT22;52945;51.908;8.364;2023-11-19T04:12:51;13.20;84.90
66140;DHT22;52945;51.908;8.364;2023-11-19T04:15:51;13.30;85.00
66140;DHT22;52945;51.908;8.364;2023-11-19T04:18:52;13.30;84.90
66140;DHT22;52945;51.908;8.364;2023-11-19T04:21:52;13.40;84.70
66140;DHT22;52945;51.908;8.364;2023-11-19T04:24:53;13.40;84.60
66140;DHT22;52945;51.908;8.364;2023-11-19T04:27:54;13.50;84.70
66140;DHT22;52945;51.908;8.364;2023-11-19T04:30:54;13.50;84.70
66140;DHT22;52945;51.908;8.364;2023-11-19T04:33:55;13.40;84.60
66140;DHT22;52945;51.908;8.364;2023-11-19T04:36:56;13.40;84.30
66140;DHT22;52945;51.908;8.364;2023-11-19T04:39:56;13.50;84.40
66140;DHT22;52945;51.908;8.364;2023-11-19T04:42:57;13.50;84.30
66140;DHT22;52945;51.908;8.364;2023-11-19T04:45:58;13.50;84.20
66140;DHT22;52945;51.908;8.364;2023-11-19T04:48:58;13.50;84.00
66140;DHT22;52945;51.908;8.364;2023-11-19T04:51:59;13.60;83.60
66140;DHT22;52945;51.908;8.364;2023-11-19T04:54:59;13.50;83.60
66140;DHT22;52945;51.908;8.364;2023-11-19T04:58:00;13.50;83.30
66140;DHT22;52945;51.908;8.364;2023-11-19T05:01:00;13.50;83.20
66140;DHT22;52945;51.908;8.364;2023-11-19T05:04:01;13.50;83.10
66140;DHT22;52945;51.908;8.364;2023-11-19T05:07:02;13.40;82.90
66140;DHT22;52945;51.908;8.364;2023-11-19T05:10:03;13.50;82.80
66140;DHT22;52945;51.908;8.364;2023-11-19T05:13:04;13.50;82.70
66140;DHT22;52945;51.908;8.364;2023-11-19T05:16:05;13.50;82.40
66140;DHT22;52945;51.908;8.364;2023-11-19T05:19:06;13.50;82.30
66140;DHT22;52945;51.908;8.364;2023-11-19T05:22:07;13.40;82.30
66140;DHT22;52945;51.908;8.364;2023-11-19T05:25:08;13.50;81.90
66140;DHT22;52945;51.908;8.364;2023-11-19T05:28:09;13.40;81.90
66140;DHT22;52945;51.908;8.364;2023-11-19T05:31:09;13.40;81.90
66140;DHT22;52945;51.908;8.364;2023-11-19T05:34:10;13.40;81.80
66140;DHT22;52945;51.908;8.364;2023-11-19T05:37:11;13.40;81.80
66140;DHT22;52945;51.908;8.364;2023-11-19T05:40:11;13.40;81.60
66140;DHT22;52945;51.908;8.364;2023-11-19T05:43:15;13.50;81.60
66140;DHT22;52945;51.908;8.364;2023-11-19T05:46:17;13.50;81.60
66140;DHT22;52945;51.908;8.364;2023-11-19T05:49:17;13.40;81.60
66140;DHT22;52945;51.908;8.364;2023-11-19T05:52:18;13.50;81.70
66140;DHT22;52945;51.908;8.364;2023-11-19T05:55:18;13.40;81.70
66140;DHT22;52945;51.908;8.364;2023-11-19T05:58:20;13.40;81.60
66140;DHT22;52945;51.908;8.364;2023-11-19T06:01:21;13.50;81.70
66140;DHT22;52945;51.908;8.364;2023-11-19T06:04:22;13.40;81.60
66140;DHT22;52945;51.908;8.364;2023-11-19T06:07:23;13.40;81.50
66140;DHT22;52945;51.908;8.364;2023-11-19T06:10:23;13.50;81.20
66140;DHT22;52945;51.908;8.364;2023-11-19T06:13:31;13.50;81.00
66140;DHT22;52945;51.908;8.364;2023-11-19T06:16:31;13.40;80.60
66140;DHT22;52945;51.908;8.364;2023-11-19T06:19:32;13.40;80.40
66140;DHT22;52945;51.908;8.364;2023-11-19T06:22:33;13.40;80.30
66140;DHT22;52945;51.908;8.364;2023-11-19T06:25:34;13.40;80.20
66140;DHT22;52945;51.908;8.364;2023-11-19T06:28:35;13.40;80.20
66140;DHT22;52945;51.908;8.364;2023-11-19T06:31:36;13.30;79.80
66140;DHT22;52945;51.908;8.364;2023-11-19T06:34:37;13.40;79.90
66140;DHT22;52945;51.908;8.364;2023-11-19T06:37:41;13.30;79.70
66140;DHT22;52945;51.908;8.364;2023-11-19T06:40:42;13.40;79.80
66140;DHT22;52945;51.908;8.364;2023-11-19T06:43:42;13.30;79.30
66140;DHT22;52945;51.908;8.364;2023-11-19T06:46:43;13.30;79.10
66140;DHT22;52945;51.908;8.364;2023-11-19T06:49:44;13.30;79.00
66140;DHT22;52945;51.908;8.364;2023-11-19T06:52:46;13.30;78.90
66140;DHT22;52945;51.908;8.364;2023-11-19T06:55:46;13.30;79.00
66140;DHT22;52945;51.908;8.364;2023-11-19T06:58:47;13.40;78.80
66140;DHT22;52945;51.908;8.364;2023-11-19T07:01:48;13.40;78.40
66140;DHT22;52945;51.908;8.364;2023-11-19T07:04:49;13.30;78.20
66140;DHT22;52945;51.908;8.364;2023-11-19T07:07:49;13.20;78.00
66140;DHT22;52945;51.908;8.364;2023-11-19T07:10:50;13.30;78.00
66140;DHT22;52945;51.908;8.364;2023-11-19T07:13:51;13.30;77.70
66140;DHT22;52945;51.908;8.364;2023-11-19T07:16:51;13.30;77.70
66140;DHT22;52945;51.908;8.364;2023-11-19T07:19:52;13.30;77.60
66140;DHT22;52945;51.908;8.364;2023-11-19T07:22:53;13.30;77.70
66140;DHT22;52945;51.908;8.364;2023-11-19T07:25:57;13.30;77.70
66140;DHT22;52945;51.908;8.364;2023-11-19T07:28:58;13.30;77.60
66140;DHT22;52945;51.908;8.364;2023-11-19T07:31:58;13.40;77.60
66140;DHT22;52945;51.908;8.364;2023-11-19T07:34:59;13.30;77.50
66140;DHT22;52945;51.908;8.364;2023-11-19T07:37:59;13.30;77.60
66140;DHT22;52945;51.908;8.364;2023-11-19T07:41:00;13.30;77.20
66140;DHT22;52945;51.908;8.364;2023-11-19T07:44:01;13.30;77.00
66140;DHT22;52945;51.908;8.364;2023-11-19T07:47:01;13.20;77.00
66140;DHT22;52945;51.908;8.364;2023-11-19T07:50:02;13.30;76.70
66140;DHT22;52945;51.908;8.364;2023-11-19T07:53:03;13.30;76.80
66140;DHT22;52945;51.908;8.364;2023-11-19T07:56:04;13.40;76.80
66140;DHT22;52945;51.908;8.364;2023-11-19T07:59:05;13.30;76.40
66140;DHT22;52945;51.908;8.364;2023-11-19T08:02:06;13.40;76.60
66140;DHT22;52945;51.908;8.364;2023-11-19T08:05:07;13.40;77.00
66140;DHT22;52945;51.908;8.364;2023-11-19T08:08:08;13.40;77.20
66140;DHT22;52945;51.908;8.364;2023-11-19T08:11:08;13.40;77.50
66140;DHT22;52945;51.908;8.364;2023-11-19T08:14:09;13.40;77.80
66140;DHT22;52945;51.908;8.364;2023-11-19T08:17:10;13.50;77.80
66140;DHT22;52945;51.908;8.364;2023-11-19T08:20:11;13.40;77.40
66140;DHT22;52945;51.908;8.364;2023-11-19T08:23:11;13.40;77.20
66140;DHT22;52945;51.908;8.364;2023-11-19T08:26:14;13.50;76.60
66140;DHT22;52945;51.908;8.364;2023-11-19T08:29:15;13.50;76.60
66140;DHT22;52945;51.908;8.364;2023-11-19T08:32:16;13.50;76.20
66140;DHT22;52945;51.908;8.364;2023-11-19T08:35:16;13.40;75.80
66140;DHT22;52945;51.908;8.364;2023-11-19T08:38:17;13.50;76.10
66140;DHT22;52945;51.908;8.364;2023-11-19T08:41:17;13.50;75.90
66140;DHT22;52945;51.908;8.364;2023-11-19T08:44:19;13.60;76.00
66140;DHT22;52945;51.908;8.364;2023-11-19T08:47:20;13.60;75.70
66140;DHT22;52945;51.908;8.364;2023-11-19T08:50:22;13.60;75.90
66140;DHT22;52945;51.908;8.364;2023-11-19T08:53:23;13.60;75.90
66140;DHT22;52945;51.908;8.364;2023-11-19T08:56:23;13.60;76.00
66140;DHT22;52945;51.908;8.364;2023-11-19T08:59:24;13.60;75.80
66140;DHT22;52945;51.908;8.364;2023-11-19T09:02:25;13.60;75.60
66140;DHT22;52945;51.908;8.364;2023-11-19T09:05:25;13.60;75.40
66140;DHT22;52945;51.908;8.364;2023-11-19T09:08:26;13.60;75.40
66140;DHT22;52945;51.908;8.364;2023-11-19T09:11:26;13.60;75.50
66140;DHT22;52945;51.908;8.364;2023-11-19T09:14:27;13.70;75.40
66140;DHT22;52945;51.908;8.364;2023-11-19T09:17:27;13.60;75.20
66140;DHT22;52945;51.908;8.364;2023-11-19T09:20:28;13.60;75.10
66140;DHT22;52945;51.908;8.364;2023-11-19T09:23:32;13.60;75.30
66140;DHT22;52945;51.908;8.364;2023-11-19T09:26:39;13.60;75.10
66140;DHT22;52945;51.908;8.364;2023-11-19T09:29:41;13.60;75.00
66140;DHT22;52945;51.908;8.364;2023-11-19T09:32:43;13.60;74.70
66140;DHT22;52945;51.908;8.364;2023-11-19T09:35:44;13.70;74.60
66140;DHT22;52945;51.908;8.364;2023-11-19T09:38:45;13.70;74.60
66140;DHT22;52945;51.908;8.364;2023-11-19T09:41:45;13.70;74.50
66140;DHT22;52945;51.908;8.364;2023-11-19T09:44:47;13.70;74.60
66140;DHT22;52945;51.908;8.364;2023-11-19T09:47:51;13.70;74.50
66140;DHT22;52945;51.908;8.364;2023-11-19T09:50:53;13.90;74.50
66140;DHT22;52945;51.908;8.364;2023-11-19T09:53:54;13.80;74.40
66140;DHT22;52945;51.908;8.364;2023-11-19T09:56:57;13.90;74.30
66140;DHT22;52945;51.908;8.364;2023-11-19T10:00:03;13.90;73.80
66140;DHT22;52945;51.908;8.364;2023-11-19T10:03:09;13.80;74.00
66140;DHT22;52945;51.908;8.364;2023-11-19T10:06:11;13.80;73.80
66140;DHT22;52945;51.908;8.364;2023-11-19T10:09:12;13.90;74.10
66140;DHT22;52945;51.908;8.364;2023-11-19T10:12:15;13.90;73.70
66140;DHT22;52945;51.908;8.364;2023-11-19T10:15:19;14.00;73.90
66140;DHT22;52945;51.908;8.364;2023-11-19T10:18:24;14.00;73.50
66140;DHT22;52945;51.908;8.364;2023-11-19T10:21:25;14.00;73.30
66140;DHT22;52945;51.908;8.364;2023-11-19T10:24:34;14.00;73.50
66140;DHT22;52945;51.908;8.364;2023-11-19T10:27:35;14.00;73.80
66140;DHT22;52945;51.908;8.364;2023-11-19T10:30:35;14.00;73.70
66140;DHT22;52945;51.908;8.364;2023-11-19T10:33:36;14.00;73.60
66140;DHT22;52945;51.908;8.364;2023-11-19T10:36:39;14.10;74.00
66140;DHT22;52945;51.908;8.364;2023-11-19T10:39:54;14.10;73.60
66140;DHT22;52945;51.908;8.364;2023-11-19T10:43:02;14.10;73.50
66140;DHT22;52945;51.908;8.364;2023-11-19T10:46:13;14.10;73.20
66140;DHT22;52945;51.908;8.364;2023-11-19T10:49:14;14.20;73.30
66140;DHT22;52945;51.908;8.364;2023-11-19T10:52:18;14.20;73.10
66140;DHT22;52945;51.908;8.364;2023-11-19T10:55:29;14.20;72.70
66140;DHT22;52945;51.908;8.364;2023-11-19T10:58:32;14.20;72.70
66140;DHT22;52945;51.908;8.364;2023-11-19T11:01:45;14.20;72.50
66140;DHT22;52945;51.908;8.364;2023-11-19T11:04:46;14.20;72.20
66140;DHT22;52945;51.908;8.364;2023-11-19T11:07:49;14.20;71.90
66140;DHT22;52945;51.908;8.364;2023-11-19T11:10:54;14.20;72.40
66140;DHT22;52945;51.908;8.364;2023-11-19T11:13:57;14.20;71.90
66140;DHT22;52945;51.908;8.364;2023-11-19T11:16:59;14.20;72.70
66140;DHT22;52945;51.908;8.364;2023-11-19T11:20:00;14.20;72.50
66140;DHT22;52945;51.908;8.364;2023-11-19T11:33:30;14.20;72.80
66140;DHT22;52945;51.908;8.364;2023-11-19T11:36:46;14.20;72.30
66140;DHT22;52945;51.908;8.364;2023-11-19T11:39:50;14.20;72.50
66140;DHT22;52945;51.908;8.364;2023-11-19T11:42:50;14.20;72.50
66140;DHT22;52945;51.908;8.364;2023-11-19T11:45:54;14.20;72.30
66140;DHT22;52945;51.908;8.364;2023-11-19T11:48:55;14.20;72.80
66140;DHT22;52945;51.908;8.364;2023-11-19T11:51:58;14.20;73.10
66140;DHT22;52945;51.908;8.364;2023-11-19T11:55:04;14.20;73.20
66140;DHT22;52945;51.908;8.364;2023-11-19T11:58:09;14.20;73.30
66140;DHT22;52945;51.908;8.364;2023-11-19T12:01:10;14.10;72.70
66140;DHT22;52945;51.908;8.364;2023-11-19T12:04:19;14.20;73.10
66140;DHT22;52945;51.908;8.364;2023-11-19T12:07:24;14.20;72.60
66140;DHT22;52945;51.908;8.364;2023-11-19T12:10:25;14.20;72.40
66140;DHT22;52945;51.908;8.364;2023-11-19T12:13:46;14.20;72.20
66140;DHT22;52945;51.908;8.364;2023-11-19T12:16:48;14.30;72.30
66140;DHT22;52945;51.908;8.364;2023-11-19T12:19:50;14.40;72.30
66140;DHT22;52945;51.908;8.364;2023-11-19T12:22:52;14.40;72.20
66140;DHT22;52945;51.908;8.364;2023-11-19T12:25:53;14.50;72.40
66140;DHT22;52945;51.908;8.364;2023-11-19T12:28:58;14.50;72.70
66140;DHT22;52945;51.908;8.364;2023-11-19T12:31:59;14.50;72.50
66140;DHT22;52945;51.908;8.364;2023-11-19T12:35:03;14.70;71.80
66140;DHT22;52945;51.908;8.364;2023-11-19T12:38:04;14.70;71.60
66140;DHT22;52945;51.908;8.364;2023-11-19T12:41:09;14.70;70.90
66140;DHT22;52945;51.908;8.364;2023-11-19T12:44:13;14.70;70.60
66140;DHT22;52945;51.908;8.364;2023-11-19T12:47:14;14.70;70.50
66140;DHT22;52945;51.908;8.364;2023-11-19T12:50:16;14.70;70.50
66140;DHT22;52945;51.908;8.364;2023-11-19T12:53:21;14.70;70.60
66140;DHT22;52945;51.908;8.364;2023-11-19T12:56:22;14.70;70.40
66140;DHT22;52945;51.908;8.364;2023-11-19T12:59:23;14.70;70.60
66140;DHT22;52945;51.908;8.364;2023-11-19T13:02:23;14.70;70.50
66140;DHT22;52945;51.908;8.364;2023-11-19T13:05:44;14.70;70.50
66140;DHT22;52945;51.908;8.364;2023-11-19T13:08:46;14.70;70.70
66140;DHT22;52945;51.908;8.364;2023-11-19T13:11:48;14.70;71.20
66140;DHT22;52945;51.908;8.364;2023-11-19T13:14:49;14.70;71.30
66140;DHT22;52945;51.908;8.364;2023-11-19T13:17:50;14.70;71.30
66140;DHT22;52945;51.908;8.364;2023-11-19T13:20:50;14.70;71.50
66140;DHT22;52945;51.908;8.364;2023-11-19T13:23:52;14.70;71.50
66140;DHT22;52945;51.908;8.364;2023-11-19T13:26:52;14.70;71.50
66140;DHT22;52945;51.908;8.364;2023-11-19T13:29:53;14.70;71.20
66140;DHT22;52945;51.908;8.364;2023-11-19T13:32:53;14.70;71.40
66140;DHT22;52945;51.908;8.364;2023-11-19T13:35:56;14.80;71.60
66140;DHT22;52945;51.908;8.364;2023-11-19T13:38:56;14.80;71.40
66140;DHT22;52945;51.908;8.364;2023-11-19T13:41:59;14.70;71.30
66140;DHT22;52945;51.908;8.364;2023-11-19T13:45:01;14.80;71.40
66140;DHT22;52945;51.908;8.364;2023-11-19T13:48:03;14.80;71.20
66140;DHT22;52945;51.908;8.364;2023-11-19T13:51:04;14.80;70.80
66140;DHT22;52945;51.908;8.364;2023-11-19T13:54:05;14.70;70.00
66140;DHT22;52945;51.908;8.364;2023-11-19T13:57:06;14.80;69.90
66140;DHT22;52945;51.908;8.364;2023-11-19T14:00:08;14.70;70.00
66140;DHT22;52945;51.908;8.364;2023-11-19T14:03:24;14.80;69.70
66140;DHT22;52945;51.908;8.364;2023-11-19T14:06:24;14.70;69.80
66140;DHT22;52945;51.908;8.364;2023-11-19T14:09:25;14.70;69.70
66140;DHT22;52945;51.908;8.364;2023-11-19T14:12:26;14.70;69.60
66140;DHT22;52945;51.908;8.364;2023-11-19T14:15:26;14.70;69.60
66140;DHT22;52945;51.908;8.364;2023-11-19T14:18:27;14.70;69.70
66140;DHT22;52945;51.908;8.364;2023-11-19T14:21:27;14.60;69.00
66140;DHT22;52945;51.908;8.364;2023-11-19T14:24:28;14.60;69.00
66140;DHT22;52945;51.908;8.364;2023-11-19T14:27:29;14.60;69.10
66140;DHT22;52945;51.908;8.364;2023-11-19T14:30:29;14.60;69.10
66140;DHT22;52945;51.908;8.364;2023-11-19T14:33:30;14.60;69.40
66140;DHT22;52945;51.908;8.364;2023-11-19T14:36:30;14.50;69.30
66140;DHT22;52945;51.908;8.364;2023-11-19T14:39:31;14.50;69.10
66140;DHT22;52945;51.908;8.364;2023-11-19T14:42:32;14.40;68.80
66140;DHT22;52945;51.908;8.364;2023-11-19T14:45:32;14.50;69.40
66140;DHT22;52945;51.908;8.364;2023-11-19T14:48:33;14.50;70.00
66140;DHT22;52945;51.908;8.364;2023-11-19T14:51:37;14.50;69.90
66140;DHT22;52945;51.908;8.364;2023-11-19T14:54:38;14.50;69.90
66140;DHT22;52945;51.908;8.364;2023-11-19T14:57:39;14.50;70.00
66140;DHT22;52945;51.908;8.364;2023-11-19T15:00:39;14.50;70.10
66140;DHT22;52945;51.908;8.364;2023-11-19T15:03:40;14.50;70.20
66140;DHT22;52945;51.908;8.364;2023-11-19T15:06:41;14.50;70.40
66140;DHT22;52945;51.908;8.364;2023-11-19T15:09:41;14.40;70.40
66140;DHT22;52945;51.908;8.364;2023-11-19T15:12:42;14.40;70.90
66140;DHT22;52945;51.908;8.364;2023-11-19T15:15:42;14.40;70.90
66140;DHT22;52945;51.908;8.364;2023-11-19T15:18:43;14.30;71.20
66140;DHT22;52945;51.908;8.364;2023-11-19T15:21:44;14.30;71.30
66140;DHT22;52945;51.908;8.364;2023-11-19T15:24:44;14.20;71.50
66140;DHT22;52945;51.908;8.364;2023-11-19T15:27:45;14.20;71.60
66140;DHT22;52945;51.908;8.364;2023-11-19T15:30:45;14.20;71.30
66140;DHT22;52945;51.908;8.364;2023-11-19T15:33:46;14.20;71.60
66140;DHT22;52945;51.908;8.364;2023-11-19T15:36:47;14.20;71.70
66140;DHT22;52945;51.908;8.364;2023-11-19T15:39:48;14.20;71.80
66140;DHT22;52945;51.908;8.364;2023-11-19T15:42:51;14.20;71.80
66140;DHT22;52945;51.908;8.364;2023-11-19T15:45:54;14.10;72.10
66140;DHT22;52945;51.908;8.364;2023-11-19T15:48:55;14.20;73.10
66140;DHT22;52945;51.908;8.364;2023-11-19T15:51:55;14.20;73.80
66140;DHT22;52945;51.908;8.364;2023-11-19T15:54:56;14.10;74.00
66140;DHT22;52945;51.908;8.364;2023-11-19T15:57:57;14.10;74.40
66140;DHT22;52945;51.908;8.364;2023-11-19T16:00:57;14.10;74.60
66140;DHT22;52945;51.908;8.364;2023-11-19T16:03:58;14.00;74.40
66140;DHT22;52945;51.908;8.364;2023-11-19T16:06:58;14.00;74.30
66140;DHT22;52945;51.908;8.364;2023-11-19T16:09:59;14.00;74.40
66140;DHT22;52945;51.908;8.364;2023-11-19T16:13:00;13.90;74.50
66140;DHT22;52945;51.908;8.364;2023-11-19T16:16:00;14.00;74.90
66140;DHT22;52945;51.908;8.364;2023-11-19T16:19:01;13.90;75.10
66140;DHT22;52945;51.908;8.364;2023-11-19T16:22:03;13.90;75.30
66140;DHT22;52945;51.908;8.364;2023-11-19T16:25:10;13.80;75.30
66140;DHT22;52945;51.908;8.364;2023-11-19T16:28:13;13.80;75.70
66140;DHT22;52945;51.908;8.364;2023-11-19T16:31:14;13.80;75.70
66140;DHT22;52945;51.908;8.364;2023-11-19T16:34:14;13.70;75.60
66140;DHT22;52945;51.908;8.364;2023-11-19T16:37:15;13.70;75.20
66140;DHT22;52945;51.908;8.364;2023-11-19T16:40:17;13.70;75.40
66140;DHT22;52945;51.908;8.364;2023-11-19T16:43:18;13.70;75.40
66140;DHT22;52945;51.908;8.364;2023-11-19T16:46:19;13.70;75.30
66140;DHT22;52945;51.908;8.364;2023-11-19T16:49:20;13.70;75.10
66140;DHT22;52945;51.908;8.364;2023-11-19T16:52:20;13.70;75.20
66140;DHT22;52945;51.908;8.364;2023-11-19T16:55:22;13.70;75.00
66140;DHT22;52945;51.908;8.364;2023-11-19T16:58:22;13.70;75.30
66140;DHT22;52945;51.908;8.364;2023-11-19T17:01:24;13.70;75.10
66140;DHT22;52945;51.908;8.364;2023-11-19T17:04:24;13.70;75.00
66140;DHT22;52945;51.908;8.364;2023-11-19T17:07:27;13.70;74.80
66140;DHT22;52945;51.908;8.364;2023-11-19T17:10:28;13.70;74.60
66140;DHT22;52945;51.908;8.364;2023-11-19T17:13:29;13.70;74.50
66140;DHT22;52945;51.908;8.364;2023-11-19T17:16:30;13.70;74.50
66140;DHT22;52945;51.908;8.364;2023-11-19T17:19:30;13.70;74.60
66140;DHT22;52945;51.908;8.364;2023-11-19T17:22:36;13.70;74.60
66140;DHT22;52945;51.908;8.364;2023-11-19T17:25:37;13.70;74.50
66140;DHT22;52945;51.908;8.364;2023-11-19T17:28:39;13.70;74.40
66140;DHT22;52945;51.908;8.364;2023-11-19T17:31:39;13.70;74.40
66140;DHT22;52945;51.908;8.364;2023-11-19T17:34:41;13.80;75.00
66140;DHT22;52945;51.908;8.364;2023-11-19T17:37:41;13.70;75.30
66140;DHT22;52945;51.908;8.364;2023-11-19T17:40:42;13.70;75.90
66140;DHT22;52945;51.908;8.364;2023-11-19T17:43:43;13.70;76.10
66140;DHT22;52945;51.908;8.364;2023-11-19T17:46:43;13.70;76.40
66140;DHT22;52945;51.908;8.364;2023-11-19T17:49:44;13.70;76.60
66140;DHT22;52945;51.908;8.364;2023-11-19T17:52:44;13.70;76.90
66140;DHT22;52945;51.908;8.364;2023-11-19T17:55:45;13.60;77.20
66140;DHT22;52945;51.908;8.364;2023-11-19T17:58:46;13.60;77.30
66140;DHT22;52945;51.908;8.364;2023-11-19T18:01:47;13.60;77.30
66140;DHT22;52945;51.908;8.364;2023-11-19T18:04:48;13.60;77.30
66140;DHT22;52945;51.908;8.364;2023-11-19T18:07:48;13.50;77.20
66140;DHT22;52945;51.908;8.364;2023-11-19T18:10:49;13.50;77.30
66140;DHT22;52945;51.908;8.364;2023-11-19T18:13:50;13.50;77.20
66140;DHT22;52945;51.908;8.364;2023-11-19T18:16:50;13.50;77.20
66140;DHT22;52945;51.908;8.364;2023-11-19T18:19:51;13.50;77.00
66140;DHT22;52945;51.908;8.364;2023-11-19T18:22:52;13.40;77.10
66140;DHT22;52945;51.908;8.364;2023-11-19T18:25:54;13.50;77.00
66140;DHT22;52945;51.908;8.364;2023-11-19T18:28:57;13.50;77.10
66140;DHT22;52945;51.908;8.364;2023-11-19T18:31:57;13.40;77.20
66140;DHT22;52945;51.908;8.364;2023-11-19T18:34:58;13.50;77.30
66140;DHT22;52945;51.908;8.364;2023-11-19T18:37:58;13.40;77.30
66140;DHT22;52945;51.908;8.364;2023-11-19T18:40:59;13.50;77.60
66140;DHT22;52945;51.908;8.364;2023-11-19T18:43:59;13.50;77.60
66140;DHT22;52945;51.908;8.364;2023-11-19T18:47:00;13.40;77.70
66140;DHT22;52945;51.908;8.364;2023-11-19T18:50:01;13.50;77.80
66140;DHT22;52945;51.908;8.364;2023-11-19T18:53:01;13.50;77.90
66140;DHT22;52945;51.908;8.364;2023-11-19T18:56:03;13.50;78.20
66140;DHT22;52945;51.908;8.364;2023-11-19T18:59:03;13.40;78.30
66140;DHT22;52945;51.908;8.364;2023-11-19T19:02:07;13.40;78.70
66140;DHT22;52945;51.908;8.364;2023-11-19T19:05:09;13.40;78.80
66140;DHT22;52945;51.908;8.364;2023-11-19T19:08:10;13.50;79.00
66140;DHT22;52945;51.908;8.364;2023-11-19T19:11:11;13.50;79.00
66140;DHT22;52945;51.908;8.364;2023-11-19T19:14:11;13.30;79.40
66140;DHT22;52945;51.908;8.364;2023-11-19T19:17:12;13.30;79.40